Baltimore, Maryland
Traffic Map
Current Weather Conditions
Baltimore, Maryland
Broken Clouds
Broken Clouds
23°
Feels Like: 23°
Wind Chill: 23° Ceiling: 14000
Heat Index: 23° Visibility: 10mi
Dew Point: 19° Wind: 6mph
Humidity: 81% Direction: 220° (SW)
Pressure: 29.86in Gusts: 0mph
Raw Report DataKBWI 260954Z 22005KT 10SM SCT100 BKN140 23/19 A2986 RMK AO2 SLP108 T02280194
Traffic Incident Summary
Active as of:
Severity:
Category:
InformationThere was an issue retrieving the traffic information for this location. Please try a different location or try again shortly.
Advertisements